sensor_id;sensor_type;location;lat;lon;timestamp;pressure;altitude;pressure_sealevel;temperature;humidity
55994;BME280;67425;52.126;20.638;2023-04-02T00:08:55;57333.59;;;-144.78;50.19
55994;BME280;67425;52.126;20.638;2023-04-02T00:11:31;57352.28;;;-144.78;51.32
55994;BME280;67425;52.126;20.638;2023-04-02T00:14:03;57341.91;;;-144.78;51.00
55994;BME280;67425;52.126;20.638;2023-04-02T00:16:32;57362.66;;;-144.78;51.16
55994;BME280;67425;52.126;20.638;2023-04-02T00:19:01;57348.13;;;-144.78;50.40
55994;BME280;67425;52.126;20.638;2023-04-02T00:21:33;57368.91;;;-144.78;51.21
55994;BME280;67425;52.126;20.638;2023-04-02T00:24:01;57370.97;;;-144.78;51.76
55994;BME280;67425;52.126;20.638;2023-04-02T00:26:35;57383.44;;;-144.78;51.74
55994;BME280;67425;52.126;20.638;2023-04-02T00:29:03;57370.97;;;-144.78;52.22
55994;BME280;67425;52.126;20.638;2023-04-02T00:31:30;57364.75;;;-144.78;51.78
55994;BME280;67425;52.126;20.638;2023-04-02T00:33:58;57352.28;;;-144.78;51.20
55994;BME280;67425;52.126;20.638;2023-04-02T00:36:28;57360.59;;;-144.78;50.60
55994;BME280;67425;52.126;20.638;2023-04-02T00:38:57;57350.19;;;-144.78;51.17
55994;BME280;67425;52.126;20.638;2023-04-02T00:41:26;57319.06;;;-144.78;50.49
55994;BME280;67425;52.126;20.638;2023-04-02T00:43:54;57331.50;;;-144.78;49.50
55994;BME280;67425;52.126;20.638;2023-04-02T00:46:28;57352.28;;;-144.78;50.43
55994;BME280;67425;52.126;20.638;2023-04-02T00:52:11;57354.34;;;-144.78;51.05
55994;BME280;67425;52.126;20.638;2023-04-02T00:54:48;57329.44;;;-144.78;50.09
55994;BME280;67425;52.126;20.638;2023-04-02T00:57:24;57310.75;;;-144.78;48.64
55994;BME280;67425;52.126;20.638;2023-04-02T00:59:55;57331.50;;;-144.78;49.92
55994;BME280;67425;52.126;20.638;2023-04-02T01:02:27;57333.59;;;-144.78;49.49
55994;BME280;67425;52.126;20.638;2023-04-02T01:04:59;57327.34;;;-144.78;48.59
55994;BME280;67425;52.126;20.638;2023-04-02T01:13:03;57343.97;;;-144.78;49.15
55994;BME280;67425;52.126;20.638;2023-04-02T01:15:39;57312.81;;;-144.78;47.89
55994;BME280;67425;52.126;20.638;2023-04-02T01:23:43;57370.97;;;-144.78;51.52
55994;BME280;67425;52.126;20.638;2023-04-02T01:26:51;57373.06;;;-144.78;51.63
55994;BME280;67425;52.126;20.638;2023-04-02T01:29:38;57383.44;;;-144.78;52.99
55994;BME280;67425;52.126;20.638;2023-04-02T01:32:07;57356.44;;;-144.78;51.60
55994;BME280;67425;52.126;20.638;2023-04-02T01:34:34;57354.34;;;-144.78;51.31
55994;BME280;67425;52.126;20.638;2023-04-02T01:43:29;57366.81;;;-144.78;51.29
55994;BME280;67425;52.126;20.638;2023-04-02T01:45:59;57383.44;;;-144.78;52.59
55994;BME280;67425;52.126;20.638;2023-04-02T01:48:29;57381.34;;;-144.78;52.67
55994;BME280;67425;52.126;20.638;2023-04-02T01:50:57;57360.59;;;-144.78;51.99
55994;BME280;67425;52.126;20.638;2023-04-02T01:53:24;57385.50;;;-144.78;52.69
55994;BME280;67425;52.126;20.638;2023-04-02T01:56:00;57312.81;;;-144.78;49.43
55994;BME280;67425;52.126;20.638;2023-04-02T01:58:28;57350.19;;;-144.78;50.43
55994;BME280;67425;52.126;20.638;2023-04-02T02:01:03;57368.91;;;-144.78;52.54
55994;BME280;67425;52.126;20.638;2023-04-02T02:03:30;57358.50;;;-144.78;51.74
55994;BME280;67425;52.126;20.638;2023-04-02T02:05:56;57389.66;;;-144.78;55.19
55994;BME280;67425;52.126;20.638;2023-04-02T02:08:52;57404.19;;;-144.78;56.11
55994;BME280;67425;52.126;20.638;2023-04-02T02:11:22;57385.50;;;-144.78;52.95
55994;BME280;67425;52.126;20.638;2023-04-02T02:13:57;57385.50;;;-144.78;52.74
55994;BME280;67425;52.126;20.638;2023-04-02T02:16:24;57385.50;;;-144.78;53.35
55994;BME280;67425;52.126;20.638;2023-04-02T02:18:57;57410.44;;;-144.78;54.96
55994;BME280;67425;52.126;20.638;2023-04-02T02:21:47;57397.97;;;-144.78;54.19
55994;BME280;67425;52.126;20.638;2023-04-02T02:24:26;57368.91;;;-144.78;54.02
55994;BME280;67425;52.126;20.638;2023-04-02T02:29:44;57381.34;;;-144.78;53.39
55994;BME280;67425;52.126;20.638;2023-04-02T02:32:12;57375.13;;;-144.78;53.17
55994;BME280;67425;52.126;20.638;2023-04-02T02:34:44;57406.28;;;-144.78;54.83
55994;BME280;67425;52.126;20.638;2023-04-02T02:37:16;57389.66;;;-144.78;53.30
55994;BME280;67425;52.126;20.638;2023-04-02T02:39:46;57397.97;;;-144.78;55.11
55994;BME280;67425;52.126;20.638;2023-04-02T02:42:25;57410.44;;;-144.78;54.16
55994;BME280;67425;52.126;20.638;2023-04-02T02:44:53;57389.66;;;-144.78;54.36
55994;BME280;67425;52.126;20.638;2023-04-02T02:47:30;57406.28;;;-144.78;53.79
55994;BME280;67425;52.126;20.638;2023-04-02T02:50:01;57400.03;;;-144.78;54.05
55994;BME280;67425;52.126;20.638;2023-04-02T02:52:34;57368.91;;;-144.78;52.81
55994;BME280;67425;52.126;20.638;2023-04-02T02:57:35;57381.34;;;-144.78;55.22
55994;BME280;67425;52.126;20.638;2023-04-02T03:00:03;57389.66;;;-144.78;53.73
55994;BME280;67425;52.126;20.638;2023-04-02T03:02:34;57412.50;;;-144.78;55.56
55994;BME280;67425;52.126;20.638;2023-04-02T03:05:00;57400.03;;;-144.78;55.19
55994;BME280;67425;52.126;20.638;2023-04-02T03:07:27;57375.13;;;-144.78;53.71
55994;BME280;67425;52.126;20.638;2023-04-02T03:20:35;57427.03;;;-144.78;57.99
55994;BME280;67425;52.126;20.638;2023-04-02T03:23:24;57408.34;;;-144.78;57.22
55994;BME280;67425;52.126;20.638;2023-04-02T03:28:42;57422.88;;;-144.78;56.14
55994;BME280;67425;52.126;20.638;2023-04-02T03:33:57;57400.03;;;-144.78;56.96
55994;BME280;67425;52.126;20.638;2023-04-02T03:36:25;57418.72;;;-144.78;56.71
55994;BME280;67425;52.126;20.638;2023-04-02T03:41:43;57420.81;;;-144.78;57.93
55994;BME280;67425;52.126;20.638;2023-04-02T03:44:29;57443.66;;;-144.78;57.67
55994;BME280;67425;52.126;20.638;2023-04-02T03:47:01;57424.97;;;-144.78;57.71
55994;BME280;67425;52.126;20.638;2023-04-02T03:49:50;57447.81;;;-144.78;59.06
55994;BME280;67425;52.126;20.638;2023-04-02T03:52:24;57410.44;;;-144.78;57.59
55994;BME280;67425;52.126;20.638;2023-04-02T03:54:51;57435.34;;;-144.78;57.67
55994;BME280;67425;52.126;20.638;2023-04-02T03:57:37;57443.66;;;-144.78;58.83
55994;BME280;67425;52.126;20.638;2023-04-02T04:00:20;57443.66;;;-144.78;58.32
55994;BME280;67425;52.126;20.638;2023-04-02T04:02:52;57449.88;;;-144.78;58.41
55994;BME280;67425;52.126;20.638;2023-04-02T04:05:35;57435.34;;;-144.78;60.44
55994;BME280;67425;52.126;20.638;2023-04-02T04:08:07;57454.03;;;-144.78;58.79
55994;BME280;67425;52.126;20.638;2023-04-02T04:10:38;57427.03;;;-144.78;59.21
55994;BME280;67425;52.126;20.638;2023-04-02T04:13:08;57470.66;;;-144.78;58.34
55994;BME280;67425;52.126;20.638;2023-04-02T04:15:58;57443.66;;;-144.78;58.70
55994;BME280;67425;52.126;20.638;2023-04-02T04:21:19;57451.97;;;-144.78;58.34
55994;BME280;67425;52.126;20.638;2023-04-02T04:24:03;57412.50;;;-144.78;57.27
55994;BME280;67425;52.126;20.638;2023-04-02T04:26:51;57445.72;;;-144.78;59.26
55994;BME280;67425;52.126;20.638;2023-04-02T04:29:45;57416.66;;;-144.78;56.48
55994;BME280;67425;52.126;20.638;2023-04-02T04:32:20;57420.81;;;-144.78;57.54
55994;BME280;67425;52.126;20.638;2023-04-02T04:34:55;57389.66;;;-144.78;55.71
55994;BME280;67425;52.126;20.638;2023-04-02T04:37:25;57443.66;;;-144.78;57.42
55994;BME280;67425;52.126;20.638;2023-04-02T04:39:59;57431.19;;;-144.78;57.34
55994;BME280;67425;52.126;20.638;2023-04-02T04:42:29;57443.66;;;-144.78;57.80
55994;BME280;67425;52.126;20.638;2023-04-02T04:47:53;57431.19;;;-144.78;57.49
55994;BME280;67425;52.126;20.638;2023-04-02T04:50:32;57424.97;;;-144.78;57.86
55994;BME280;67425;52.126;20.638;2023-04-02T04:53:05;57441.59;;;-144.78;57.32
55994;BME280;67425;52.126;20.638;2023-04-02T04:55:41;57389.66;;;-144.78;55.65
55994;BME280;67425;52.126;20.638;2023-04-02T05:01:11;57414.59;;;-144.78;57.00
55994;BME280;67425;52.126;20.638;2023-04-02T05:03:46;57414.59;;;-144.78;55.54
55994;BME280;67425;52.126;20.638;2023-04-02T05:09:16;57431.19;;;-144.78;59.54
55994;BME280;67425;52.126;20.638;2023-04-02T05:11:47;57445.72;;;-144.78;59.44
55994;BME280;67425;52.126;20.638;2023-04-02T05:14:30;57437.44;;;-144.78;57.97
55994;BME280;67425;52.126;20.638;2023-04-02T05:17:04;57451.97;;;-144.78;59.83
55994;BME280;67425;52.126;20.638;2023-04-02T05:19:53;57462.34;;;-144.78;62.85
55994;BME280;67425;52.126;20.638;2023-04-02T05:32:54;57472.72;;;-144.78;62.06
55994;BME280;67425;52.126;20.638;2023-04-02T05:35:30;57476.88;;;-144.78;61.99
55994;BME280;67425;52.126;20.638;2023-04-02T05:37:56;57449.88;;;-144.78;62.57
55994;BME280;67425;52.126;20.638;2023-04-02T05:40:27;57464.41;;;-144.78;61.06
55994;BME280;67425;52.126;20.638;2023-04-02T05:42:56;57483.13;;;-144.78;61.53
55994;BME280;67425;52.126;20.638;2023-04-02T05:45:27;57470.66;;;-144.78;58.90
55994;BME280;67425;52.126;20.638;2023-04-02T05:47:56;57458.19;;;-144.78;60.14
55994;BME280;67425;52.126;20.638;2023-04-02T05:50:31;57497.66;;;-144.78;61.96
55994;BME280;67425;52.126;20.638;2023-04-02T05:53:32;57456.13;;;-144.78;58.39
55994;BME280;67425;52.126;20.638;2023-04-02T05:56:04;57462.34;;;-144.78;59.02
55994;BME280;67425;52.126;20.638;2023-04-02T05:58:46;57451.97;;;-144.78;56.99
55994;BME280;67425;52.126;20.638;2023-04-02T06:01:49;57445.72;;;-144.78;60.47
55994;BME280;67425;52.126;20.638;2023-04-02T06:04:41;57456.13;;;-144.78;57.16
55994;BME280;67425;52.126;20.638;2023-04-02T06:07:16;57468.56;;;-144.78;58.60
55994;BME280;67425;52.126;20.638;2023-04-02T06:13:27;57493.50;;;-144.78;59.93
55994;BME280;67425;52.126;20.638;2023-04-02T06:15:29;57464.41;;;-144.78;57.89
55994;BME280;67425;52.126;20.638;2023-04-02T06:18:04;57470.66;;;-144.78;58.59
55994;BME280;67425;52.126;20.638;2023-04-02T06:20:30;57460.28;;;-144.78;58.61
55994;BME280;67425;52.126;20.638;2023-04-02T06:23:00;57447.81;;;-144.78;58.31
55994;BME280;67425;52.126;20.638;2023-04-02T06:25:29;57474.81;;;-144.78;58.98
55994;BME280;67425;52.126;20.638;2023-04-02T06:27:58;57462.34;;;-144.78;57.93
55994;BME280;67425;52.126;20.638;2023-04-02T06:30:35;57460.28;;;-144.78;58.39
55994;BME280;67425;52.126;20.638;2023-04-02T06:33:02;57447.81;;;-144.78;55.26
55994;BME280;67425;52.126;20.638;2023-04-02T06:35:28;57437.44;;;-144.78;55.89
55994;BME280;67425;52.126;20.638;2023-04-02T06:37:55;57454.03;;;-144.78;57.28
55994;BME280;67425;52.126;20.638;2023-04-02T06:42:58;57468.56;;;-144.78;56.23
55994;BME280;67425;52.126;20.638;2023-04-02T06:45:29;57447.81;;;-144.78;55.39
55994;BME280;67425;52.126;20.638;2023-04-02T06:47:58;57439.50;;;-144.78;54.95
55994;BME280;67425;52.126;20.638;2023-04-02T06:51:00;57499.72;;;-144.78;57.87
55994;BME280;67425;52.126;20.638;2023-04-02T06:53:36;57476.88;;;-144.78;57.39
55994;BME280;67425;52.126;20.638;2023-04-02T06:58:28;57485.19;;;-144.78;57.38
55994;BME280;67425;52.126;20.638;2023-04-02T07:00:54;57487.28;;;-144.78;57.74
55994;BME280;67425;52.126;20.638;2023-04-02T07:03:26;57464.41;;;-144.78;56.68
55994;BME280;67425;52.126;20.638;2023-04-02T07:05:53;57478.97;;;-144.78;57.76
55994;BME280;67425;52.126;20.638;2023-04-02T07:08:18;57483.13;;;-144.78;57.29
55994;BME280;67425;52.126;20.638;2023-04-02T07:10:44;57489.34;;;-144.78;59.79
55994;BME280;67425;52.126;20.638;2023-04-02T07:13:20;57512.19;;;-144.78;59.06
55994;BME280;67425;52.126;20.638;2023-04-02T07:15:51;57493.50;;;-144.78;58.36
55994;BME280;67425;52.126;20.638;2023-04-02T07:18:27;57464.41;;;-144.78;56.42
55994;BME280;67425;52.126;20.638;2023-04-02T07:20:54;57472.72;;;-144.78;56.76
55994;BME280;67425;52.126;20.638;2023-04-02T07:23:19;57474.81;;;-144.78;57.56
55994;BME280;67425;52.126;20.638;2023-04-02T07:25:49;57487.28;;;-144.78;58.67
55994;BME280;67425;52.126;20.638;2023-04-02T07:28:15;57497.66;;;-144.78;58.47
55994;BME280;67425;52.126;20.638;2023-04-02T07:30:41;57481.03;;;-144.78;58.07
55994;BME280;67425;52.126;20.638;2023-04-02T07:33:06;57468.56;;;-144.78;56.68
55994;BME280;67425;52.126;20.638;2023-04-02T07:35:31;57499.72;;;-144.78;59.90
55994;BME280;67425;52.126;20.638;2023-04-02T07:37:57;57505.97;;;-144.78;59.47
55994;BME280;67425;52.126;20.638;2023-04-02T07:40:22;57481.03;;;-144.78;58.34
55994;BME280;67425;52.126;20.638;2023-04-02T07:42:48;57478.97;;;-144.78;58.73
55994;BME280;67425;52.126;20.638;2023-04-02T07:45:14;57451.97;;;-144.78;55.50
55994;BME280;67425;52.126;20.638;2023-04-02T07:47:40;57476.88;;;-144.78;57.63
55994;BME280;67425;52.126;20.638;2023-04-02T07:50:07;57458.19;;;-144.78;57.21
55994;BME280;67425;52.126;20.638;2023-04-02T07:52:33;57474.81;;;-144.78;55.71
55994;BME280;67425;52.126;20.638;2023-04-02T07:54:59;57485.19;;;-144.78;58.03
55994;BME280;67425;52.126;20.638;2023-04-02T07:57:26;57514.25;;;-144.78;58.74
55994;BME280;67425;52.126;20.638;2023-04-02T07:59:51;57476.88;;;-144.78;57.53
55994;BME280;67425;52.126;20.638;2023-04-02T08:02:21;57481.03;;;-144.78;57.85
55994;BME280;67425;52.126;20.638;2023-04-02T08:04:47;57487.28;;;-144.78;56.55
55994;BME280;67425;52.126;20.638;2023-04-02T08:07:12;57495.56;;;-144.78;58.12
55994;BME280;67425;52.126;20.638;2023-04-02T08:09:38;57514.25;;;-144.78;58.53
55994;BME280;67425;52.126;20.638;2023-04-02T08:12:03;57497.66;;;-144.78;59.17
55994;BME280;67425;52.126;20.638;2023-04-02T08:14:29;57476.88;;;-144.78;57.65
55994;BME280;67425;52.126;20.638;2023-04-02T08:16:54;57439.50;;;-144.78;54.10
55994;BME280;67425;52.126;20.638;2023-04-02T08:19:20;57418.72;;;-144.78;53.62
55994;BME280;67425;52.126;20.638;2023-04-02T08:21:47;57404.19;;;-144.78;52.20
55994;BME280;67425;52.126;20.638;2023-04-02T08:24:15;57501.81;;;-144.78;57.07
55994;BME280;67425;52.126;20.638;2023-04-02T08:26:44;57493.50;;;-144.78;57.40
55994;BME280;67425;52.126;20.638;2023-04-02T08:29:09;57497.66;;;-144.78;55.75
55994;BME280;67425;52.126;20.638;2023-04-02T08:31:35;57489.34;;;-144.78;57.41
55994;BME280;67425;52.126;20.638;2023-04-02T08:34:00;57485.19;;;-144.78;56.90
55994;BME280;67425;52.126;20.638;2023-04-02T08:36:29;57510.13;;;-144.78;57.67
55994;BME280;67425;52.126;20.638;2023-04-02T08:38:55;57503.88;;;-144.78;56.92
55994;BME280;67425;52.126;20.638;2023-04-02T08:41:22;57472.72;;;-144.78;55.72
55994;BME280;67425;52.126;20.638;2023-04-02T08:44:13;57472.72;;;-144.78;56.05
55994;BME280;67425;52.126;20.638;2023-04-02T08:46:46;57499.72;;;-144.78;56.76
55994;BME280;67425;52.126;20.638;2023-04-02T08:49:17;57495.56;;;-144.78;56.48
55994;BME280;67425;52.126;20.638;2023-04-02T08:51:45;57497.66;;;-144.78;56.75
55994;BME280;67425;52.126;20.638;2023-04-02T08:54:34;57497.66;;;-144.78;56.73
55994;BME280;67425;52.126;20.638;2023-04-02T08:57:36;57481.03;;;-144.78;54.50
55994;BME280;67425;52.126;20.638;2023-04-02T09:00:06;57447.81;;;-144.78;53.47
55994;BME280;67425;52.126;20.638;2023-04-02T09:02:44;57447.81;;;-144.78;53.30
55994;BME280;67425;52.126;20.638;2023-04-02T09:05:19;57472.72;;;-144.78;53.39
55994;BME280;67425;52.126;20.638;2023-04-02T09:07:48;57454.03;;;-144.78;53.74
55994;BME280;67425;52.126;20.638;2023-04-02T09:10:15;57474.81;;;-144.78;55.13
55994;BME280;67425;52.126;20.638;2023-04-02T09:12:42;57451.97;;;-144.78;53.82
55994;BME280;67425;52.126;20.638;2023-04-02T09:17:38;57483.13;;;-144.78;53.48
55994;BME280;67425;52.126;20.638;2023-04-02T09:20:16;57439.50;;;-144.78;52.61
55994;BME280;67425;52.126;20.638;2023-04-02T09:22:47;57454.03;;;-144.78;52.96
55994;BME280;67425;52.126;20.638;2023-04-02T09:25:21;57449.88;;;-144.78;51.81
55994;BME280;67425;52.126;20.638;2023-04-02T09:27:48;57483.13;;;-144.78;53.90
55994;BME280;67425;52.126;20.638;2023-04-02T09:33:03;57487.28;;;-144.78;54.04
55994;BME280;67425;52.126;20.638;2023-04-02T09:35:52;57441.59;;;-144.78;51.91
55994;BME280;67425;52.126;20.638;2023-04-02T09:38:19;57462.34;;;-144.78;52.99
55994;BME280;67425;52.126;20.638;2023-04-02T09:43:21;57474.81;;;-144.78;53.05
55994;BME280;67425;52.126;20.638;2023-04-02T09:48:36;57445.72;;;-144.78;51.69
55994;BME280;67425;52.126;20.638;2023-04-02T09:51:19;57431.19;;;-144.78;50.86
55994;BME280;67425;52.126;20.638;2023-04-02T09:54:06;57443.66;;;-144.78;50.74
55994;BME280;67425;52.126;20.638;2023-04-02T09:56:37;57464.41;;;-144.78;53.26
55994;BME280;67425;52.126;20.638;2023-04-02T09:59:17;57470.66;;;-144.78;52.75
55994;BME280;67425;52.126;20.638;2023-04-02T10:01:57;57472.72;;;-144.78;53.18
55994;BME280;67425;52.126;20.638;2023-04-02T10:04:44;57445.72;;;-144.78;52.99
55994;BME280;67425;52.126;20.638;2023-04-02T10:07:44;57427.03;;;-144.78;51.41
55994;BME280;67425;52.126;20.638;2023-04-02T10:10:33;57429.13;;;-144.78;50.86
55994;BME280;67425;52.126;20.638;2023-04-02T10:13:05;57433.28;;;-144.78;51.67
55994;BME280;67425;52.126;20.638;2023-04-02T10:21:12;57454.03;;;-144.78;52.14
55994;BME280;67425;52.126;20.638;2023-04-02T10:23:38;57472.72;;;-144.78;52.95
55994;BME280;67425;52.126;20.638;2023-04-02T10:29:10;57474.81;;;-144.78;52.96
55994;BME280;67425;52.126;20.638;2023-04-02T10:34:22;57439.50;;;-144.78;50.77
55994;BME280;67425;52.126;20.638;2023-04-02T10:36:52;57435.34;;;-144.78;51.79
55994;BME280;67425;52.126;20.638;2023-04-02T10:45:04;57447.81;;;-144.78;52.01
55994;BME280;67425;52.126;20.638;2023-04-02T10:47:47;57501.81;;;-144.78;53.80
55994;BME280;67425;52.126;20.638;2023-04-02T10:53:19;57497.66;;;-144.78;54.96
55994;BME280;67425;52.126;20.638;2023-04-02T10:55:51;57435.34;;;-144.78;51.97
55994;BME280;67425;52.126;20.638;2023-04-02T10:58:27;57499.72;;;-144.78;54.52
55994;BME280;67425;52.126;20.638;2023-04-02T11:00:59;57439.50;;;-144.78;52.88
55994;BME280;67425;52.126;20.638;2023-04-02T11:03:47;57483.13;;;-144.78;55.63
55994;BME280;67425;52.126;20.638;2023-04-02T11:06:26;57489.34;;;-144.78;54.30
55994;BME280;67425;52.126;20.638;2023-04-02T11:08:59;57447.81;;;-144.78;53.84
55994;BME280;67425;52.126;20.638;2023-04-02T11:11:30;57503.88;;;-144.78;56.40
55994;BME280;67425;52.126;20.638;2023-04-02T11:16:25;57495.56;;;-144.78;56.30
55994;BME280;67425;52.126;20.638;2023-04-02T11:21:40;57458.19;;;-144.78;54.83
55994;BME280;67425;52.126;20.638;2023-04-02T11:26:47;57499.72;;;-144.78;56.99
55994;BME280;67425;52.126;20.638;2023-04-02T11:29:24;57495.56;;;-144.78;56.53
55994;BME280;67425;52.126;20.638;2023-04-02T11:37:41;57489.34;;;-144.78;55.48
55994;BME280;67425;52.126;20.638;2023-04-02T11:42:39;57472.72;;;-144.78;55.49
55994;BME280;67425;52.126;20.638;2023-04-02T11:50:45;57524.66;;;-144.78;56.78
55994;BME280;67425;52.126;20.638;2023-04-02T12:09:28;57468.56;;;-144.78;56.13
55994;BME280;67425;52.126;20.638;2023-04-02T12:11:58;57449.88;;;-144.78;54.29
55994;BME280;67425;52.126;20.638;2023-04-02T12:14:51;57501.81;;;-144.78;57.79
55994;BME280;67425;52.126;20.638;2023-04-02T12:17:30;57503.88;;;-144.78;58.36
55994;BME280;67425;52.126;20.638;2023-04-02T12:20:00;57497.66;;;-144.78;57.66
55994;BME280;67425;52.126;20.638;2023-04-02T12:22:30;57499.72;;;-144.78;57.15
55994;BME280;67425;52.126;20.638;2023-04-02T12:25:51;57520.50;;;-144.78;59.02
55994;BME280;67425;52.126;20.638;2023-04-02T12:28:23;57483.13;;;-144.78;57.02
55994;BME280;67425;52.126;20.638;2023-04-02T12:30:49;57499.72;;;-144.78;58.59
55994;BME280;67425;52.126;20.638;2023-04-02T12:35:45;57493.50;;;-144.78;57.92
55994;BME280;67425;52.126;20.638;2023-04-02T12:38:22;57489.34;;;-144.78;57.48
55994;BME280;67425;52.126;20.638;2023-04-02T12:40:56;57458.19;;;-144.78;56.02
55994;BME280;67425;52.126;20.638;2023-04-02T12:43:27;57495.56;;;-144.78;56.45
55994;BME280;67425;52.126;20.638;2023-04-02T12:45:55;57499.72;;;-144.78;57.52
55994;BME280;67425;52.126;20.638;2023-04-02T12:48:22;57464.41;;;-144.78;56.31
55994;BME280;67425;52.126;20.638;2023-04-02T12:50:48;57499.72;;;-144.78;57.38
55994;BME280;67425;52.126;20.638;2023-04-02T12:53:28;57468.56;;;-144.78;55.65
55994;BME280;67425;52.126;20.638;2023-04-02T12:55:56;57497.66;;;-144.78;56.78
55994;BME280;67425;52.126;20.638;2023-04-02T12:58:27;57526.72;;;-144.78;59.27
55994;BME280;67425;52.126;20.638;2023-04-02T13:01:09;57493.50;;;-144.78;56.47
55994;BME280;67425;52.126;20.638;2023-04-02T13:03:35;57555.81;;;-144.78;59.19
55994;BME280;67425;52.126;20.638;2023-04-02T13:06:00;57514.25;;;-144.78;57.36
55994;BME280;67425;52.126;20.638;2023-04-02T13:08:41;57489.34;;;-144.78;56.73
55994;BME280;67425;52.126;20.638;2023-04-02T13:11:06;57489.34;;;-144.78;57.93
55994;BME280;67425;52.126;20.638;2023-04-02T13:13:34;57481.03;;;-144.78;56.33
55994;BME280;67425;52.126;20.638;2023-04-02T13:16:25;57510.13;;;-144.78;57.77
55994;BME280;67425;52.126;20.638;2023-04-02T13:19:10;57481.03;;;-144.78;56.67
55994;BME280;67425;52.126;20.638;2023-04-02T13:21:35;57481.03;;;-144.78;57.25
55994;BME280;67425;52.126;20.638;2023-04-02T13:24:01;57472.72;;;-144.78;54.99
55994;BME280;67425;52.126;20.638;2023-04-02T13:26:28;57470.66;;;-144.78;54.88
55994;BME280;67425;52.126;20.638;2023-04-02T13:31:41;57530.88;;;-144.78;57.68
55994;BME280;67425;52.126;20.638;2023-04-02T13:34:06;57518.41;;;-144.78;57.92
55994;BME280;67425;52.126;20.638;2023-04-02T13:36:31;57474.81;;;-144.78;56.45
55994;BME280;67425;52.126;20.638;2023-04-02T13:38:57;57505.97;;;-144.78;59.75
55994;BME280;67425;52.126;20.638;2023-04-02T13:41:27;57510.13;;;-144.78;59.59
55994;BME280;67425;52.126;20.638;2023-04-02T13:43:54;57499.72;;;-144.78;59.20
55994;BME280;67425;52.126;20.638;2023-04-02T13:46:22;57539.19;;;-144.78;62.00
55994;BME280;67425;52.126;20.638;2023-04-02T13:48:49;57526.72;;;-144.78;61.18
55994;BME280;67425;52.126;20.638;2023-04-02T13:51:23;57557.88;;;-144.78;61.68
55994;BME280;67425;52.126;20.638;2023-04-02T13:53:54;57541.25;;;-144.78;62.17
55994;BME280;67425;52.126;20.638;2023-04-02T13:56:21;57543.34;;;-144.78;62.06
55994;BME280;67425;52.126;20.638;2023-04-02T13:58:50;57524.66;;;-144.78;60.81
55994;BME280;67425;52.126;20.638;2023-04-02T14:01:17;57508.03;;;-144.78;59.74
55994;BME280;67425;52.126;20.638;2023-04-02T14:03:43;57537.09;;;-144.78;61.26
55994;BME280;67425;52.126;20.638;2023-04-02T14:09:04;57526.72;;;-144.78;61.46
55994;BME280;67425;52.126;20.638;2023-04-02T14:25:27;57526.72;;;-144.78;60.04
55994;BME280;67425;52.126;20.638;2023-04-02T14:28:10;57539.19;;;-144.78;61.92
55994;BME280;67425;52.126;20.638;2023-04-02T14:36:16;57530.88;;;-144.78;60.56
55994;BME280;67425;52.126;20.638;2023-04-02T14:41:47;57541.25;;;-144.78;60.98
55994;BME280;67425;52.126;20.638;2023-04-02T14:44:17;57532.97;;;-144.78;61.98
55994;BME280;67425;52.126;20.638;2023-04-02T14:46:46;57545.41;;;-144.78;61.71
55994;BME280;67425;52.126;20.638;2023-04-02T14:49:28;57547.50;;;-144.78;61.84
55994;BME280;67425;52.126;20.638;2023-04-02T14:52:02;57551.66;;;-144.78;62.20
55994;BME280;67425;52.126;20.638;2023-04-02T14:54:52;57547.50;;;-144.78;63.33
55994;BME280;67425;52.126;20.638;2023-04-02T14:57:29;57545.41;;;-144.78;61.41
55994;BME280;67425;52.126;20.638;2023-04-02T15:00:06;57526.72;;;-144.78;61.37
55994;BME280;67425;52.126;20.638;2023-04-02T15:07:57;57572.41;;;-144.78;61.24
55994;BME280;67425;52.126;20.638;2023-04-02T15:10:31;57526.72;;;-144.78;60.47
55994;BME280;67425;52.126;20.638;2023-04-02T15:12:59;57543.34;;;-144.78;61.27
55994;BME280;67425;52.126;20.638;2023-04-02T15:15:41;57559.97;;;-144.78;61.29
55994;BME280;67425;52.126;20.638;2023-04-02T15:18:12;57532.97;;;-144.78;60.84
55994;BME280;67425;52.126;20.638;2023-04-02T15:21:06;57528.81;;;-144.78;59.91
55994;BME280;67425;52.126;20.638;2023-04-02T15:26:42;57566.19;;;-144.78;61.23
55994;BME280;67425;52.126;20.638;2023-04-02T15:32:04;57547.50;;;-144.78;59.52
55994;BME280;67425;52.126;20.638;2023-04-02T15:34:43;57532.97;;;-144.78;59.38
55994;BME280;67425;52.126;20.638;2023-04-02T15:45:25;57535.03;;;-144.78;61.24
55994;BME280;67425;52.126;20.638;2023-04-02T16:06:16;57510.13;;;-144.78;58.36
55994;BME280;67425;52.126;20.638;2023-04-02T16:11:32;57559.97;;;-144.78;61.37
55994;BME280;67425;52.126;20.638;2023-04-02T16:14:25;57555.81;;;-144.78;61.03
55994;BME280;67425;52.126;20.638;2023-04-02T16:16:55;57549.56;;;-144.78;61.45
55994;BME280;67425;52.126;20.638;2023-04-02T16:19:28;57564.09;;;-144.78;61.49
55994;BME280;67425;52.126;20.638;2023-04-02T16:22:02;57557.88;;;-144.78;60.84
55994;BME280;67425;52.126;20.638;2023-04-02T16:24:29;57551.66;;;-144.78;61.26
55994;BME280;67425;52.126;20.638;2023-04-02T16:30:05;57601.50;;;-144.78;63.60
55994;BME280;67425;52.126;20.638;2023-04-02T16:32:48;57568.25;;;-144.78;62.64
55994;BME280;67425;52.126;20.638;2023-04-02T16:43:32;57545.41;;;-144.78;59.54
55994;BME280;67425;52.126;20.638;2023-04-02T16:46:13;57555.81;;;-144.78;60.46
55994;BME280;67425;52.126;20.638;2023-04-02T16:57:20;57578.66;;;-144.78;61.35
55994;BME280;67425;52.126;20.638;2023-04-02T16:59:58;57559.97;;;-144.78;62.26
55994;BME280;67425;52.126;20.638;2023-04-02T17:08:15;57547.50;;;-144.78;60.13